createdAt,value
2019-05-19T00:00:35.920Z,13.39
2019-05-19T00:03:42.958Z,13.42
2019-05-19T00:06:47.369Z,13.30
2019-05-19T00:09:51.665Z,13.43
2019-05-19T00:12:59.839Z,13.49
2019-05-19T00:16:04.216Z,13.38
2019-05-19T00:19:08.515Z,13.31
2019-05-19T00:22:12.827Z,13.37
2019-05-19T00:25:18.936Z,13.19
2019-05-19T00:28:23.322Z,13.02
2019-05-19T00:31:27.593Z,12.97
2019-05-19T00:34:31.890Z,13.04
2019-05-19T00:37:36.280Z,13.09
2019-05-19T00:40:40.591Z,13.18
2019-05-19T00:43:44.993Z,13.09
2019-05-19T00:46:49.338Z,13.14
2019-05-19T00:49:53.639Z,13.01
2019-05-19T00:52:58.205Z,12.94
2019-05-19T00:56:03.338Z,12.87
2019-05-19T00:59:09.057Z,12.93
2019-05-19T01:02:13.347Z,12.88
2019-05-19T01:05:20.598Z,12.83
2019-05-19T01:08:23.704Z,12.80
2019-05-19T01:11:27.993Z,12.80
2019-05-19T01:14:32.413Z,12.95
2019-05-19T01:17:36.910Z,12.83
2019-05-19T01:20:41.198Z,12.71
2019-05-19T01:23:45.640Z,12.71
2019-05-19T01:26:49.957Z,12.77
2019-05-19T01:29:54.267Z,12.89
2019-05-19T01:32:58.567Z,12.85
2019-05-19T01:36:02.930Z,12.73
2019-05-19T01:39:07.754Z,12.73
2019-05-19T01:42:12.073Z,12.95
2019-05-19T01:45:17.550Z,12.78
2019-05-19T01:48:21.844Z,12.84
2019-05-19T01:51:26.397Z,12.82
2019-05-19T01:54:30.690Z,12.82
2019-05-19T01:57:34.996Z,12.64
2019-05-19T02:00:39.281Z,12.68
2019-05-19T02:03:43.699Z,12.75
2019-05-19T02:06:48.133Z,12.82
2019-05-19T02:09:52.491Z,12.83
2019-05-19T02:12:56.800Z,12.70
2019-05-19T02:16:01.120Z,12.64
2019-05-19T02:19:05.709Z,12.66
2019-05-19T02:22:10.129Z,12.66
2019-05-19T02:25:14.699Z,12.70
2019-05-19T02:28:19.028Z,12.69
2019-05-19T02:31:23.351Z,12.72
2019-05-19T02:34:27.665Z,12.63
2019-05-19T02:37:32.013Z,12.53
2019-05-19T02:40:39.701Z,12.64
2019-05-19T02:43:45.017Z,12.79
2019-05-19T02:46:51.814Z,12.66
2019-05-19T02:49:57.686Z,12.62
2019-05-19T02:53:03.222Z,12.41
2019-05-19T02:56:07.742Z,12.54
2019-05-19T02:59:13.134Z,12.36
2019-05-19T03:02:17.434Z,12.35
2019-05-19T03:05:21.718Z,12.36
2019-05-19T03:08:26.037Z,12.57
2019-05-19T03:11:30.340Z,12.46
2019-05-19T03:14:34.644Z,12.57
2019-05-19T03:17:40.655Z,12.54
2019-05-19T03:20:44.961Z,12.39
2019-05-19T03:23:49.250Z,12.36
2019-05-19T03:26:53.612Z,12.19
2019-05-19T03:29:59.794Z,12.27
2019-05-19T03:33:05.291Z,12.22
2019-05-19T03:36:10.239Z,12.20
2019-05-19T03:39:14.573Z,12.40
2019-05-19T03:42:18.892Z,12.35
2019-05-19T03:45:23.191Z,12.39
2019-05-19T03:48:29.582Z,12.20
2019-05-19T03:51:33.866Z,12.35
2019-05-19T03:54:38.271Z,12.41
2019-05-19T03:57:42.567Z,12.35
2019-05-19T04:00:48.754Z,12.31
2019-05-19T04:03:53.041Z,12.21
2019-05-19T04:06:57.330Z,12.19
2019-05-19T04:10:01.650Z,12.21
2019-05-19T04:13:06.093Z,12.16
2019-05-19T04:16:10.352Z,12.36
2019-05-19T04:19:14.654Z,12.28
2019-05-19T04:22:19.002Z,12.42
2019-05-19T04:25:23.281Z,12.35
2019-05-19T04:28:28.601Z,12.39
2019-05-19T04:31:32.910Z,12.30
2019-05-19T04:34:38.390Z,12.29
2019-05-19T04:37:42.663Z,12.33
2019-05-19T04:40:48.168Z,12.32
2019-05-19T04:43:52.513Z,12.28
2019-05-19T04:46:56.891Z,12.31
2019-05-19T04:50:01.378Z,12.17
2019-05-19T04:53:05.686Z,12.36
2019-05-19T04:56:10.058Z,12.26
2019-05-19T04:59:14.355Z,12.34
2019-05-19T05:02:18.664Z,12.35
2019-05-19T05:05:25.002Z,12.27
2019-05-19T05:08:30.978Z,12.22
2019-05-19T05:11:35.319Z,12.30
2019-05-19T05:14:39.625Z,12.40
2019-05-19T05:17:43.908Z,12.42
2019-05-19T05:20:48.226Z,12.42
2019-05-19T05:23:52.535Z,12.42
2019-05-19T05:26:56.832Z,12.44
2019-05-19T05:30:01.147Z,12.54
2019-05-19T05:33:05.431Z,12.60
2019-05-19T05:36:11.560Z,12.58
2019-05-19T05:39:15.889Z,12.60
2019-05-19T05:42:20.308Z,12.69
2019-05-19T05:45:24.614Z,12.45
2019-05-19T05:48:28.920Z,12.58
2019-05-19T05:51:33.220Z,12.58
2019-05-19T05:54:37.532Z,12.58
2019-05-19T05:57:41.860Z,12.62
2019-05-19T06:00:46.262Z,12.40
2019-05-19T06:03:50.550Z,12.52
2019-05-19T06:06:54.852Z,12.43
2019-05-19T06:09:59.205Z,12.47
2019-05-19T06:13:03.515Z,12.61
2019-05-19T06:16:07.829Z,12.49
2019-05-19T06:19:12.136Z,12.65
2019-05-19T06:22:16.444Z,12.55
2019-05-19T06:25:22.489Z,12.58
2019-05-19T06:28:26.867Z,12.79
2019-05-19T06:31:32.971Z,12.81
2019-05-19T06:34:37.319Z,12.70
2019-05-19T06:37:44.139Z,12.56
2019-05-19T06:40:48.459Z,12.74
2019-05-19T06:43:52.757Z,12.64
2019-05-19T06:46:57.050Z,12.84
2019-05-19T06:50:02.556Z,12.84
2019-05-19T06:53:14.158Z,12.62
2019-05-19T06:56:13.080Z,12.62
2019-05-19T06:59:17.391Z,12.74
2019-05-19T07:02:21.878Z,12.77
2019-05-19T07:05:26.216Z,12.77
2019-05-19T07:08:30.492Z,12.96
2019-05-19T07:11:34.817Z,12.96
2019-05-19T07:14:39.124Z,13.19
2019-05-19T07:17:43.434Z,13.19
2019-05-19T07:20:49.155Z,13.20
2019-05-19T07:23:53.572Z,13.20
2019-05-19T07:27:00.903Z,13.27
2019-05-19T07:30:05.826Z,13.31
2019-05-19T07:33:10.250Z,13.30
2019-05-19T07:36:14.600Z,13.11
2019-05-19T07:39:21.710Z,13.24
2019-05-19T07:42:26.143Z,13.22
2019-05-19T07:45:31.914Z,13.09
2019-05-19T07:48:36.443Z,13.32
2019-05-19T07:51:40.740Z,13.22
2019-05-19T07:54:45.066Z,13.20
2019-05-19T07:57:49.392Z,13.12
2019-05-19T08:00:53.725Z,13.13
2019-05-19T08:04:00.975Z,13.14
2019-05-19T08:07:05.285Z,13.37
2019-05-19T08:10:10.107Z,13.45
2019-05-19T08:13:14.388Z,13.53
2019-05-19T08:16:21.165Z,13.62
2019-05-19T08:19:25.479Z,13.62
2019-05-19T08:22:29.793Z,13.76
2019-05-19T08:25:34.149Z,13.79
2019-05-19T08:28:38.524Z,13.79
2019-05-19T08:31:42.841Z,14.10
2019-05-19T08:34:47.132Z,14.08
2019-05-19T08:37:52.717Z,13.96
2019-05-19T08:40:57.057Z,13.81
2019-05-19T08:44:01.443Z,13.86
2019-05-19T08:47:06.843Z,13.85
2019-05-19T08:50:11.142Z,13.91
2019-05-19T08:53:15.437Z,14.00
2019-05-19T08:56:19.741Z,14.05
2019-05-19T08:59:24.034Z,14.10
2019-05-19T09:02:28.338Z,14.13
2019-05-19T09:05:32.654Z,14.02
2019-05-19T09:08:36.951Z,14.19
2019-05-19T09:11:42.726Z,14.21
2019-05-19T09:14:47.042Z,14.21
2019-05-19T09:17:54.115Z,14.07
2019-05-19T09:20:57.398Z,14.30
2019-05-19T09:24:01.681Z,14.30
2019-05-19T09:27:06.137Z,14.44
2019-05-19T09:30:11.006Z,14.35
2019-05-19T09:33:15.386Z,14.37
2019-05-19T09:36:20.684Z,14.52
2019-05-19T09:39:24.989Z,14.40
2019-05-19T09:42:29.305Z,14.55
2019-05-19T09:45:33.701Z,14.41
2019-05-19T09:48:38.013Z,14.37
2019-05-19T09:51:42.310Z,14.33
2019-05-19T09:54:47.727Z,14.55
2019-05-19T09:57:53.793Z,14.29
2019-05-19T10:00:58.099Z,14.41
2019-05-19T10:04:02.384Z,14.56
2019-05-19T10:07:07.665Z,14.85
2019-05-19T10:10:22.643Z,14.94
2019-05-19T10:13:26.965Z,14.84
2019-05-19T10:16:31.287Z,14.95
2019-05-19T10:19:35.593Z,15.08
2019-05-19T10:22:41.043Z,15.32
2019-05-19T10:25:46.839Z,15.27
2019-05-19T10:28:51.162Z,15.04
2019-05-19T10:31:55.551Z,15.25
2019-05-19T10:34:59.836Z,15.35
2019-05-19T10:38:04.126Z,15.37
2019-05-19T10:41:09.540Z,15.44
2019-05-19T10:44:13.825Z,15.55
2019-05-19T10:47:18.163Z,15.87
2019-05-19T10:50:22.440Z,15.88
2019-05-19T10:53:26.883Z,16.05
2019-05-19T10:56:31.166Z,16.07
2019-05-19T10:59:35.443Z,16.06
2019-05-19T11:02:39.758Z,16.23
2019-05-19T11:05:44.181Z,16.22
2019-05-19T11:08:48.790Z,16.20
2019-05-19T11:11:53.304Z,16.40
2019-05-19T11:14:57.574Z,16.37
2019-05-19T11:18:01.918Z,16.69
2019-05-19T11:21:06.200Z,16.74
2019-05-19T11:24:10.581Z,16.58
2019-05-19T11:27:15.206Z,16.70
2019-05-19T11:30:19.484Z,16.58
2019-05-19T11:33:25.247Z,16.61
2019-05-19T11:36:29.566Z,16.77
2019-05-19T11:39:34.000Z,16.72
2019-05-19T11:42:38.289Z,16.95
2019-05-19T11:45:42.595Z,17.17
2019-05-19T11:48:46.889Z,17.19
2019-05-19T11:51:51.205Z,17.27
2019-05-19T11:54:55.495Z,17.54
2019-05-19T11:57:59.897Z,17.49
2019-05-19T12:01:04.190Z,17.63
2019-05-19T12:04:08.557Z,17.90
2019-05-19T12:07:12.871Z,17.91
2019-05-19T12:10:17.166Z,17.60
2019-05-19T12:13:21.463Z,17.45
2019-05-19T12:16:25.774Z,17.54
2019-05-19T12:19:30.281Z,17.30
2019-05-19T12:22:34.979Z,17.24
2019-05-19T12:25:39.316Z,17.20
2019-05-19T12:28:43.660Z,17.24
2019-05-19T12:31:47.947Z,17.03
2019-05-19T12:34:52.253Z,16.92
2019-05-19T12:37:57.553Z,17.06
2019-05-19T12:41:01.903Z,17.31
2019-05-19T12:44:06.295Z,17.81
2019-05-19T12:47:10.570Z,17.96
2019-05-19T12:50:15.891Z,18.03
2019-05-19T12:53:20.204Z,18.01
2019-05-19T12:56:38.569Z,18.02
2019-05-19T12:59:30.536Z,17.82
2019-05-19T13:02:37.988Z,17.74
2019-05-19T13:05:41.214Z,17.60
2019-05-19T13:08:45.596Z,17.51
2019-05-19T13:11:50.739Z,17.68
2019-05-19T13:14:55.091Z,17.93
2019-05-19T13:17:59.420Z,18.05
2019-05-19T13:21:03.718Z,18.13
2019-05-19T13:24:08.093Z,18.13
2019-05-19T13:27:12.418Z,18.32
2019-05-19T13:30:16.945Z,18.59
2019-05-19T13:33:21.236Z,18.39
2019-05-19T13:36:25.537Z,18.24
2019-05-19T13:39:29.814Z,18.02
2019-05-19T13:42:34.126Z,17.87
2019-05-19T13:45:38.461Z,18.03
2019-05-19T13:48:42.744Z,17.97
2019-05-19T13:51:47.238Z,18.02
2019-05-19T13:54:51.557Z,18.24
2019-05-19T13:57:56.119Z,18.31
2019-05-19T14:01:00.419Z,18.37
2019-05-19T14:04:06.175Z,18.55
2019-05-19T14:07:10.565Z,18.64
2019-05-19T14:10:15.050Z,18.71
2019-05-19T14:13:19.369Z,18.77
2019-05-19T14:16:23.713Z,19.08
2019-05-19T14:19:28.075Z,19.03
2019-05-19T14:22:32.417Z,19.12
2019-05-19T14:25:38.191Z,19.04
2019-05-19T14:28:42.838Z,19.11
2019-05-19T14:31:47.200Z,19.11
2019-05-19T14:34:51.510Z,19.14
2019-05-19T14:37:55.796Z,19.09
2019-05-19T14:41:00.071Z,19.17
2019-05-19T14:44:05.008Z,19.57
2019-05-19T14:47:09.482Z,19.63
2019-05-19T14:50:14.629Z,19.60
2019-05-19T14:53:18.974Z,19.51
2019-05-19T14:56:26.117Z,19.60
2019-05-19T14:59:30.396Z,19.77
2019-05-19T15:02:34.708Z,19.98
2019-05-19T15:05:40.480Z,19.91
2019-05-19T15:08:44.785Z,19.82
2019-05-19T15:11:49.084Z,19.94
2019-05-19T15:14:53.383Z,20.08
2019-05-19T15:17:57.723Z,20.29
2019-05-19T15:21:02.031Z,20.50
2019-05-19T15:24:06.429Z,20.59
2019-05-19T15:27:10.743Z,20.96
2019-05-19T15:30:15.536Z,21.06
2019-05-19T15:33:19.811Z,20.84
2019-05-19T15:36:25.923Z,21.30
2019-05-19T15:39:30.286Z,21.47
2019-05-19T15:42:34.581Z,21.48
2019-05-19T15:45:38.985Z,21.91
2019-05-19T15:48:43.296Z,21.96
2019-05-19T15:52:00.891Z,21.77
2019-05-19T15:54:53.640Z,22.04
2019-05-19T15:57:58.009Z,21.94
2019-05-19T16:01:03.070Z,22.28
2019-05-19T16:04:07.380Z,22.46
2019-05-19T16:07:11.792Z,22.38
2019-05-19T16:10:17.694Z,22.25
2019-05-19T16:13:22.241Z,22.25
2019-05-19T16:16:26.559Z,22.78
2019-05-19T16:19:30.849Z,22.19
2019-05-19T16:22:35.159Z,22.42
2019-05-19T16:25:39.440Z,22.70
2019-05-19T16:28:43.928Z,23.06
2019-05-19T16:31:48.252Z,23.05
2019-05-19T16:34:52.961Z,22.65
2019-05-19T16:37:57.452Z,22.90
2019-05-19T16:41:03.909Z,22.23
2019-05-19T16:44:08.265Z,21.67
2019-05-19T16:47:13.388Z,21.94
2019-05-19T16:50:18.678Z,21.98
2019-05-19T16:53:22.998Z,22.05
2019-05-19T16:56:28.299Z,21.63
2019-05-19T16:59:32.604Z,21.52
2019-05-19T17:02:38.316Z,21.63
2019-05-19T17:05:42.659Z,21.07
2019-05-19T17:08:46.983Z,20.74
2019-05-19T17:11:52.740Z,20.49
2019-05-19T17:14:57.051Z,20.62
2019-05-19T17:18:01.357Z,20.50
2019-05-19T17:21:05.977Z,20.21
2019-05-19T17:24:10.371Z,19.73
2019-05-19T17:27:15.156Z,19.60
2019-05-19T17:30:20.230Z,19.36
2019-05-19T17:33:24.532Z,19.29
2019-05-19T17:36:28.815Z,18.93
2019-05-19T17:39:33.126Z,18.79
2019-05-19T17:42:37.517Z,18.78
2019-05-19T17:45:41.870Z,18.68
2019-05-19T17:48:46.237Z,18.73
2019-05-19T17:51:50.626Z,18.60
2019-05-19T17:54:54.911Z,18.55
2019-05-19T17:57:59.303Z,18.56
2019-05-19T18:01:03.590Z,18.37
2019-05-19T18:04:07.973Z,18.30
2019-05-19T18:07:12.408Z,18.24
2019-05-19T18:10:16.685Z,18.25
2019-05-19T18:13:22.098Z,18.19
2019-05-19T18:16:26.797Z,18.06
2019-05-19T18:19:31.213Z,17.93
2019-05-19T18:22:35.541Z,17.97
2019-05-19T18:25:39.834Z,17.79
2019-05-19T18:28:44.136Z,17.79
2019-05-19T18:31:48.516Z,17.67
2019-05-19T18:34:52.806Z,17.52
2019-05-19T18:37:57.225Z,17.61
2019-05-19T18:41:02.708Z,17.44
2019-05-19T18:44:07.088Z,17.39
2019-05-19T18:47:11.416Z,17.33
2019-05-19T18:50:16.218Z,17.17
2019-05-19T18:53:20.643Z,17.19
2019-05-19T18:56:26.842Z,17.14
2019-05-19T18:59:46.053Z,17.01
2019-05-19T19:02:37.498Z,16.90
2019-05-19T19:05:41.973Z,16.90
2019-05-19T19:08:46.402Z,16.75
2019-05-19T19:11:51.022Z,16.64
2019-05-19T19:14:56.819Z,16.64
2019-05-19T19:18:01.141Z,16.59
2019-05-19T19:21:05.636Z,16.45
2019-05-19T19:24:09.972Z,16.36
2019-05-19T19:27:14.417Z,16.39
2019-05-19T19:30:19.211Z,16.33
2019-05-19T19:33:23.494Z,16.29
2019-05-19T19:36:27.837Z,16.22
2019-05-19T19:39:32.298Z,16.24
2019-05-19T19:42:36.599Z,16.12
2019-05-19T19:45:41.292Z,16.05
2019-05-19T19:48:45.633Z,16.08
2019-05-19T19:51:49.929Z,16.06
2019-05-19T19:54:54.299Z,16.08
2019-05-19T19:57:58.684Z,16.02
2019-05-19T20:01:02.974Z,15.91
2019-05-19T20:04:07.266Z,15.92
2019-05-19T20:07:11.580Z,15.74
2019-05-19T20:10:16.028Z,15.70
2019-05-19T20:13:21.338Z,15.80
2019-05-19T20:16:25.755Z,15.86
2019-05-19T20:19:30.110Z,15.80
2019-05-19T20:22:34.548Z,15.77
2019-05-19T20:25:38.834Z,15.85
2019-05-19T20:28:43.120Z,15.72
2019-05-19T20:31:47.438Z,15.64
2019-05-19T20:34:51.734Z,15.68
2019-05-19T20:37:56.058Z,15.53
2019-05-19T20:41:00.380Z,15.57
2019-05-19T20:44:06.094Z,15.54
2019-05-19T20:47:10.376Z,15.37
2019-05-19T20:50:14.823Z,15.42
2019-05-19T20:53:19.118Z,15.44
2019-05-19T20:56:23.404Z,15.47
2019-05-19T20:59:27.714Z,15.49
2019-05-19T21:02:32.096Z,15.45
2019-05-19T21:05:37.803Z,15.34
2019-05-19T21:08:43.606Z,15.36
2019-05-19T21:11:47.888Z,15.28
2019-05-19T21:14:52.178Z,15.30
2019-05-19T21:17:56.599Z,15.25
2019-05-19T21:21:00.927Z,15.21
2019-05-19T21:24:05.212Z,15.14
2019-05-19T21:27:09.491Z,15.16
2019-05-19T21:30:16.491Z,15.06
2019-05-19T21:33:20.814Z,15.02
2019-05-19T21:36:25.126Z,15.14
2019-05-19T21:39:29.423Z,15.14
2019-05-19T21:42:35.563Z,15.09
2019-05-19T21:45:40.971Z,15.08
2019-05-19T21:48:45.281Z,15.10
2019-05-19T21:51:49.555Z,15.04
2019-05-19T21:54:53.873Z,14.88
2019-05-19T21:57:58.158Z,14.97
2019-05-19T22:01:02.618Z,14.99
2019-05-19T22:04:06.904Z,14.96
2019-05-19T22:07:15.351Z,14.78
2019-05-19T22:10:19.825Z,14.86
2019-05-19T22:13:24.096Z,14.92
2019-05-19T22:16:28.366Z,14.95
2019-05-19T22:19:32.638Z,14.96
2019-05-19T22:22:40.192Z,14.93
2019-05-19T22:25:44.483Z,14.90
2019-05-19T22:28:48.778Z,14.85
2019-05-19T22:31:53.050Z,14.76
2019-05-19T22:34:57.364Z,14.67
2019-05-19T22:38:01.638Z,14.75
2019-05-19T22:41:06.039Z,14.72
2019-05-19T22:44:10.336Z,14.93
2019-05-19T22:47:14.821Z,14.87
2019-05-19T22:50:19.418Z,14.87
2019-05-19T22:53:23.690Z,14.80
2019-05-19T22:56:27.967Z,14.63
2019-05-19T22:59:32.234Z,14.62
2019-05-19T23:02:36.664Z,14.57
2019-05-19T23:05:40.956Z,14.59
2019-05-19T23:08:45.270Z,14.53
2019-05-19T23:11:50.559Z,14.47
2019-05-19T23:14:54.818Z,14.47
2019-05-19T23:17:59.096Z,14.33
2019-05-19T23:21:03.383Z,14.41
2019-05-19T23:24:07.687Z,14.14
2019-05-19T23:27:11.987Z,14.24
2019-05-19T23:30:16.570Z,14.40
2019-05-19T23:33:20.904Z,14.40
2019-05-19T23:36:25.193Z,14.34
2019-05-19T23:39:30.985Z,14.04
2019-05-19T23:42:35.419Z,14.04
2019-05-19T23:45:39.712Z,14.09
2019-05-19T23:48:44.221Z,14.21
2019-05-19T23:51:48.496Z,14.16
2019-05-19T23:54:54.859Z,14.16
2019-05-19T23:57:59.246Z,14.10
